Terminal Aerodrome Forecast
Issued by NWS

Home | Current Version | Previous Version | Text Only | Print | Product List | Glossary On
Versions: 1 2 3 4 5 6 7 8 9 10 11 12 13 14 15 16 17 18
000
FTUS44 KLIX 021700
TAFMSY
TAF
KMSY 021732Z 0218/0318 17009KT P6SM VCTS SCT025 BKN050CB
     FM030100 17007KT P6SM BKN035
     FM030800 18007KT P6SM VCTS OVC025CB
     FM031000 VRB10G15KT 5SM -TSRA OVC020CB
     FM031600 27009KT P6SM BKN025=

USA.gov is the U.S. government's official web portal to all federal, state and local government web resources and services.